Etusivu
METAR-TAF:

METAR-TAF

Lentoasemat :

Oujda, Marokko

Leveyspiiri: 34-47N, Pituuspiiri: 001-56W, korkeus merenpinnasta: 468 m

Tämänhetkinen sää

Tämä raportti tehtiin 16 minuuttia sitten, kello 19.00 UTC
Tuuli 5 kn etelästä
Lämpötila 11°C
Kosteus 94%
Ilmanpaine 1028 hPa
Näkyvyys 10 km tai enemmän
ei pilviä alle 1500 m:ssä eikä cumulonimbus-pilviä

METAR: GMFO 091900Z 17005KT CAVOK 11/10 Q1028 NOSIG

Aika: 20:16 (19:16 UTC)

Sääennuste

Tämä raportti tehtiin 2 tuntia ja 16 minuuttia sitten, kello 17.00 UTC
Ennuste voimassa 09. päivästä klo 18 UTC - 10. päivään klo 24 UTC
Tuuli 3 kn lännestä/lounaasta
Näkyvyys 10 km tai enemmän
Muutamia pilviä 2600 ft:n korkeudessa
Hajonneita pilviä 23000 ft:n korkeudessa
Todennäköisyys 30% :
Ajoittain
09. päivästä klo 22 UTC - 10. päivään klo 07 UTC
Näkyvyys: 2000 m
Hajonneita pilviä 400 ft:n korkeudessa
utua

TAF: GMFO 091700Z 0918/1024 24003KT 9999 FEW026 BKN230 PROB30 TEMPO 0922/1007 2000 BR BKN004

Säähavainnot ja -ennusteet yli 4000 lentoasemalta (METAR- ja TAF-raportit).

Käytössä olevat sääasemat on merkitty karttaan keltaisilla ja punaisilla pisteillä.

Aseta hiiri pisteen päälle nähdäksesi sääaseman nimen.

Klikkaa sitten nähdäksesi säähavainnot ja -ennusteet.

Kartan vaihtaminen: klikkaa mustalla rastilla varustettuja vihreitä pisteitä, niin voit zoomata sisään; viivalla varustettua vihreää pistettä, niin voit zoomata ulos tai vihreitä nuolia, niin pääset viereisille kartoille.


METAR-TAF: